Time;durP1;ratioP1;P1;durP2;ratioP2;P2;SDS_P1;SDS_P2;PMS_P1;PMS_P2;Temp;Humidity;BMP_temperature;BMP_pressure;BME280_temperature;BME280_humidity;BME280_pressure;Samples;Min_cycle;Max_cycle;Signal;HPM_P1;HPM_P2
2023/10/16 00:01:03;;;;;;;1.60;1.20;;;2.30;99.90;;;;;;4986835;28;20575;-40
2023/10/16 00:03:30;;;;;;;1.67;1.42;;;2.30;99.90;;;;;;4982187;28;20119;-33
2023/10/16 00:05:56;;;;;;;1.80;1.45;;;2.30;99.90;;;;;;4984021;28;20038;-33
2023/10/16 00:08:22;;;;;;;1.15;1.15;;;2.30;99.90;;;;;;4983700;28;20040;-35
2023/10/16 00:11:03;;;;;;;1.40;1.30;;;2.30;99.90;;;;;;4984065;28;20042;-33
2023/10/16 00:13:30;;;;;;;2.97;1.45;;;2.20;99.90;;;;;;4986585;28;20444;-34
2023/10/16 00:15:57;;;;;;;2.67;1.33;;;2.20;99.90;;;;;;4988318;28;20488;-32
2023/10/16 00:18:24;;;;;;;1.55;1.27;;;2.20;99.90;;;;;;4980148;28;20019;-36
2023/10/16 00:20:51;;;;;;;1.27;1.25;;;2.20;99.90;;;;;;4985088;28;20782;-34
2023/10/16 00:23:17;;;;;;;1.48;1.20;;;2.20;99.90;;;;;;4986914;28;20026;-36
2023/10/16 00:25:44;;;;;;;1.42;1.33;;;2.10;99.90;;;;;;4989293;28;20133;-32
2023/10/16 00:28:11;;;;;;;2.17;1.45;;;2.00;99.90;;;;;;4984568;28;20034;-33
2023/10/16 00:30:40;;;;;;;1.80;1.70;;;2.00;99.90;;;;;;4986639;28;20042;-33
2023/10/16 00:33:13;;;;;;;1.38;1.30;;;1.90;99.90;;;;;;4988249;28;20023;-37
2023/10/16 00:35:39;;;;;;;1.45;1.35;;;1.90;99.90;;;;;;4986807;28;20089;-37
2023/10/16 00:38:12;;;;;;;1.20;1.13;;;1.90;99.90;;;;;;4981930;28;20061;-33
2023/10/16 00:40:40;;;;;;;1.27;1.23;;;1.90;99.90;;;;;;4990367;28;20488;-33
2023/10/16 00:43:11;;;;;;;1.85;1.73;;;1.70;99.90;;;;;;4986423;28;20030;-33
2023/10/16 00:45:45;;;;;;;1.10;1.10;;;1.70;99.90;;;;;;4988155;28;20523;-34
2023/10/16 00:48:21;;;;;;;1.13;1.10;;;1.70;99.90;;;;;;4987243;28;20065;-32
2023/10/16 00:50:48;;;;;;;1.38;1.27;;;1.70;99.90;;;;;;4985891;28;20029;-33
2023/10/16 00:53:20;;;;;;;3.38;1.40;;;1.80;99.90;;;;;;4981514;28;20023;-33
2023/10/16 00:55:50;;;;;;;1.42;1.30;;;1.80;99.90;;;;;;4985279;28;20050;-32
2023/10/16 00:58:16;;;;;;;1.50;1.40;;;1.80;99.90;;;;;;4983568;28;20042;-33
2023/10/16 01:00:45;;;;;;;3.10;1.60;;;1.80;99.90;;;;;;4982110;28;20049;-34
2023/10/16 01:03:12;;;;;;;1.52;1.42;;;1.70;99.90;;;;;;4983640;28;20030;-32
2023/10/16 01:05:41;;;;;;;1.40;1.30;;;1.70;99.90;;;;;;4977006;28;20031;-33
2023/10/16 01:08:10;;;;;;;1.27;1.25;;;1.70;99.90;;;;;;4983207;28;20036;-36
2023/10/16 01:10:40;;;;;;;1.27;1.20;;;1.70;99.90;;;;;;4985457;28;20022;-34
2023/10/16 01:13:12;;;;;;;2.40;1.50;;;1.70;99.90;;;;;;4986392;28;20035;-38
2023/10/16 01:15:43;;;;;;;1.85;1.20;;;1.70;99.90;;;;;;4982134;28;20543;-40
2023/10/16 01:18:15;;;;;;;1.20;1.20;;;1.70;99.90;;;;;;4987181;28;20057;-40
2023/10/16 01:20:48;;;;;;;1.38;1.33;;;1.60;99.90;;;;;;4982185;28;20030;-37
2023/10/16 01:23:21;;;;;;;1.42;1.17;;;1.60;99.90;;;;;;4978383;28;20034;-39
2023/10/16 01:25:51;;;;;;;1.08;1.08;;;1.50;99.90;;;;;;4978768;28;20437;-33
2023/10/16 01:28:18;;;;;;;1.30;1.20;;;1.50;99.90;;;;;;4981940;28;20282;-39
2023/10/16 01:30:47;;;;;;;1.45;1.35;;;1.50;99.90;;;;;;4983184;28;20054;-40
2023/10/16 01:33:16;;;;;;;1.35;1.35;;;1.50;99.90;;;;;;4978093;28;20084;-39
2023/10/16 01:35:45;;;;;;;1.20;1.20;;;1.50;99.90;;;;;;4983752;28;20148;-36
2023/10/16 01:38:18;;;;;;;1.10;1.10;;;1.50;99.90;;;;;;4984384;28;20034;-40
2023/10/16 01:41:02;;;;;;;1.40;1.30;;;1.50;99.90;;;;;;4986364;28;20609;-39
2023/10/16 01:43:29;;;;;;;2.25;1.45;;;1.50;99.90;;;;;;4982374;28;20045;-39
2023/10/16 01:45:58;;;;;;;1.20;1.20;;;1.50;99.90;;;;;;4983005;28;20438;-38
2023/10/16 01:48:28;;;;;;;1.50;1.40;;;1.50;99.90;;;;;;4982121;28;20026;-40
2023/10/16 01:50:54;;;;;;;1.75;1.65;;;1.50;99.90;;;;;;4984620;28;20034;-39
2023/10/16 01:53:20;;;;;;;1.77;1.38;;;1.50;99.90;;;;;;4976894;28;20558;-34
2023/10/16 01:55:56;;;;;;;1.00;1.00;;;1.40;99.90;;;;;;4981007;28;20049;-35
2023/10/16 01:58:25;;;;;;;1.10;1.10;;;1.40;99.90;;;;;;4982138;28;20045;-35
2023/10/16 02:00:54;;;;;;;1.42;1.35;;;1.50;99.90;;;;;;4983340;28;20046;-32
2023/10/16 02:03:22;;;;;;;1.77;1.20;;;1.50;99.90;;;;;;4983835;28;20046;-33
2023/10/16 02:05:48;;;;;;;1.30;1.20;;;1.50;99.90;;;;;;4985550;28;20045;-33
2023/10/16 02:08:14;;;;;;;1.20;1.20;;;1.40;99.90;;;;;;4984521;28;20034;-35
2023/10/16 02:10:41;;;;;;;1.10;1.10;;;1.40;99.90;;;;;;4981846;28;20034;-33
2023/10/16 02:13:08;;;;;;;1.55;1.50;;;1.50;99.90;;;;;;4978068;28;20029;-36
2023/10/16 02:15:36;;;;;;;1.20;1.20;;;1.50;99.90;;;;;;4981503;28;20034;-32
2023/10/16 02:18:18;;;;;;;1.58;1.48;;;1.50;99.90;;;;;;4985436;28;20078;-33
2023/10/16 02:20:46;;;;;;;1.25;1.20;;;1.40;99.90;;;;;;4980660;28;20041;-32
2023/10/16 02:23:12;;;;;;;2.40;1.33;;;1.40;99.90;;;;;;4980671;28;20460;-37
2023/10/16 02:25:37;;;;;;;1.42;1.30;;;1.40;99.90;;;;;;4979453;28;20197;-34
2023/10/16 02:28:13;;;;;;;1.50;1.40;;;1.40;99.90;;;;;;4982919;28;20037;-35
2023/10/16 02:30:41;;;;;;;1.63;1.52;;;1.30;99.90;;;;;;4980704;28;20133;-32
2023/10/16 02:33:14;;;;;;;1.10;1.08;;;1.30;99.90;;;;;;4977758;28;20030;-33
2023/10/16 02:35:42;;;;;;;3.35;1.30;;;1.30;99.90;;;;;;4981830;28;20034;-34
2023/10/16 02:38:13;;;;;;;;;;;1.30;99.90;;;;;;4985473;28;20216;-32
2023/10/16 02:40:41;;;;;;;1.63;1.52;;;1.20;99.90;;;;;;4981114;28;19921;-34
2023/10/16 02:43:13;;;;;;;1.35;1.25;;;1.20;99.90;;;;;;4983071;28;20049;-33
2023/10/16 02:45:42;;;;;;;1.20;1.10;;;1.20;99.90;;;;;;4983685;28;20534;-35
2023/10/16 02:48:09;;;;;;;1.20;1.20;;;1.30;99.90;;;;;;4988699;28;20498;-32
2023/10/16 02:50:35;;;;;;;1.30;1.30;;;1.20;99.90;;;;;;4981888;28;20512;-33
2023/10/16 02:53:07;;;;;;;1.17;1.17;;;1.20;99.90;;;;;;4983064;28;20101;-34
2023/10/16 02:55:33;;;;;;;1.20;1.20;;;1.10;99.90;;;;;;4974994;28;20078;-35
2023/10/16 02:58:04;;;;;;;1.10;1.10;;;1.00;99.90;;;;;;4976908;28;20068;-38
2023/10/16 03:00:37;;;;;;;1.65;1.55;;;1.00;99.90;;;;;;4988904;28;20038;-34
2023/10/16 03:03:06;;;;;;;1.50;1.40;;;1.00;99.90;;;;;;4989098;28;20042;-32
2023/10/16 03:05:32;;;;;;;1.30;1.20;;;1.00;99.90;;;;;;4983499;28;20032;-35
2023/10/16 03:07:57;;;;;;;1.30;1.30;;;1.00;99.90;;;;;;4983227;28;20438;-38
2023/10/16 03:10:26;;;;;;;1.27;1.27;;;1.00;99.90;;;;;;4983403;28;20031;-34
2023/10/16 03:12:51;;;;;;;2.13;1.73;;;1.00;99.90;;;;;;4985464;28;20078;-41
2023/10/16 03:15:27;;;;;;;1.45;1.40;;;1.10;99.90;;;;;;4984475;28;20038;-35
2023/10/16 03:17:54;;;;;;;1.60;1.50;;;1.00;99.90;;;;;;4982383;28;20027;-40
2023/10/16 03:20:22;;;;;;;3.10;1.70;;;1.00;99.90;;;;;;4982019;28;20037;-37
2023/10/16 03:22:52;;;;;;;4.85;1.73;;;1.00;99.90;;;;;;4982151;28;20034;-41
2023/10/16 03:25:28;;;;;;;1.33;1.33;;;0.90;99.90;;;;;;4985770;28;20871;-37
2023/10/16 03:27:55;;;;;;;1.20;1.20;;;0.90;99.90;;;;;;4989714;28;20369;-39
2023/10/16 03:30:25;;;;;;;1.88;1.55;;;0.90;99.90;;;;;;4985342;28;20485;-39
2023/10/16 03:32:53;;;;;;;2.47;1.30;;;0.90;99.90;;;;;;4986153;28;20061;-39
2023/10/16 03:35:21;;;;;;;3.58;1.60;;;0.90;99.90;;;;;;4983318;28;20030;-39
2023/10/16 03:37:49;;;;;;;1.45;1.35;;;0.90;99.90;;;;;;4987197;28;20025;-39
2023/10/16 03:40:19;;;;;;;1.65;1.55;;;0.90;99.90;;;;;;4985221;28;20054;-40
2023/10/16 03:42:48;;;;;;;1.63;1.52;;;0.90;99.90;;;;;;4984150;28;20070;-40
2023/10/16 03:45:14;;;;;;;1.30;1.30;;;0.90;99.90;;;;;;4980170;28;20512;-38
2023/10/16 03:47:41;;;;;;;1.35;1.27;;;0.80;99.90;;;;;;4987225;28;20026;-38
2023/10/16 03:50:08;;;;;;;5.07;1.60;;;0.80;99.90;;;;;;4980445;28;20030;-37
2023/10/16 03:52:35;;;;;;;1.38;1.38;;;0.60;99.90;;;;;;4982234;28;20041;-39
2023/10/16 03:55:22;;;;;;;1.65;1.20;;;0.70;99.90;;;;;;4985868;28;20058;-39
2023/10/16 03:57:50;;;;;;;2.00;1.33;;;0.70;99.90;;;;;;4983847;28;20049;-39
2023/10/16 04:00:18;;;;;;;1.73;1.63;;;0.70;99.90;;;;;;4985391;28;20038;-38
2023/10/16 04:02:44;;;;;;;1.55;1.42;;;0.70;99.90;;;;;;4985519;28;22563;-40
2023/10/16 04:05:29;;;;;;;3.08;1.13;;;0.80;99.90;;;;;;4979651;28;20440;-39
2023/10/16 04:07:56;;;;;;;1.00;1.00;;;0.70;99.90;;;;;;4995245;28;20117;-39
2023/10/16 04:10:27;;;;;;;1.10;1.10;;;0.60;99.90;;;;;;4981520;28;20508;-37
2023/10/16 04:12:54;;;;;;;1.95;1.40;;;0.50;99.90;;;;;;4986922;28;20506;-39
2023/10/16 04:18:17;;;;;;;1.10;1.10;;;0.30;99.90;;;;;;4987963;28;20086;-37
2023/10/16 04:20:43;;;;;;;0.98;0.98;;;0.20;99.90;;;;;;4985999;28;20034;-40
2023/10/16 04:23:29;;;;;;;1.00;1.00;;;0.30;99.90;;;;;;4980373;28;20365;-37
2023/10/16 04:29:23;;;;;;;1.10;1.10;;;0.40;99.90;;;;;;4988272;28;20037;-40
2023/10/16 04:31:44;;;;;;;1.00;1.00;;;0.40;99.90;;;;;;4983439;28;20046;-36
2023/10/16 04:36:53;;;;;;;1.00;1.00;;;0.40;99.90;;;;;;4983899;28;20038;-40
2023/10/16 04:45:24;;;;;;;1.00;1.00;;;0.30;99.90;;;;;;4982796;28;20045;-30
2023/10/16 04:50:37;;;;;;;1.20;1.20;;;0.30;99.90;;;;;;4979022;28;20033;-30
2023/10/16 04:53:12;;;;;;;1.10;1.10;;;0.30;99.90;;;;;;4981521;28;20038;-29
2023/10/16 05:16:36;;;;;;;1.42;1.42;;;0.10;99.90;;;;;;4973646;28;21645;-36
2023/10/16 06:16:18;;;;;;;1.33;1.30;;;-0.20;99.90;;;;;;4982702;28;20407;-33
2023/10/16 06:18:47;;;;;;;1.38;1.27;;;-0.10;99.90;;;;;;4987309;28;20683;-32
2023/10/16 06:21:14;;;;;;;1.88;1.30;;;0.00;99.90;;;;;;4981967;28;20030;-31
2023/10/16 06:23:48;;;;;;;2.05;1.92;;;0.00;99.90;;;;;;4983286;28;20113;-32
2023/10/16 06:26:17;;;;;;;2.03;1.63;;;0.10;99.90;;;;;;4983262;28;20022;-33
2023/10/16 06:28:49;;;;;;;2.63;2.38;;;0.10;99.90;;;;;;4989658;28;20381;-31
2023/10/16 06:31:25;;;;;;;2.65;2.15;;;0.20;99.90;;;;;;4984537;28;20639;-31
2023/10/16 06:33:56;;;;;;;2.55;2.35;;;0.20;99.90;;;;;;4982643;28;20027;-32
2023/10/16 06:36:23;;;;;;;2.10;1.98;;;0.30;99.90;;;;;;4984995;28;20034;-35
2023/10/16 06:38:52;;;;;;;2.60;2.42;;;0.30;99.90;;;;;;4983177;28;20054;-32
2023/10/16 06:41:21;;;;;;;;;;;0.40;99.90;;;;;;4987655;28;20083;-38
2023/10/16 06:43:50;;;;;;;2.65;2.40;;;0.40;99.90;;;;;;4983985;28;20004;-32
2023/10/16 06:46:22;;;;;;;2.22;2.03;;;0.50;99.90;;;;;;4984607;28;20018;-31
2023/10/16 06:48:49;;;;;;;2.40;1.98;;;0.50;99.90;;;;;;4989691;28;20042;-31
2023/10/16 06:51:15;;;;;;;2.15;2.00;;;0.50;99.90;;;;;;4986124;28;20026;-31
2023/10/16 06:53:45;;;;;;;1.88;1.73;;;0.50;99.90;;;;;;4984647;28;20041;-31
2023/10/16 06:56:22;;;;;;;4.95;2.15;;;0.50;99.90;;;;;;4985310;28;20072;-30
2023/10/16 06:58:53;;;;;;;2.25;2.10;;;0.60;99.90;;;;;;4986411;28;20029;-30
2023/10/16 07:01:19;;;;;;;2.53;2.10;;;0.60;99.90;;;;;;4988865;28;20064;-30
2023/10/16 07:03:47;;;;;;;2.72;2.38;;;0.60;99.90;;;;;;4989047;28;20026;-30
2023/10/16 07:06:14;;;;;;;2.22;2.10;;;0.70;99.90;;;;;;4986593;28;20395;-31
2023/10/16 07:08:41;;;;;;;3.83;2.78;;;0.70;99.90;;;;;;4985816;28;20265;-31
2023/10/16 07:11:13;;;;;;;2.85;2.65;;;0.70;99.90;;;;;;4984950;28;20038;-30
2023/10/16 07:13:39;;;;;;;2.60;2.38;;;0.70;99.90;;;;;;4982161;28;20113;-30
2023/10/16 07:16:07;;;;;;;2.03;1.92;;;0.80;99.90;;;;;;4986491;28;20165;-31
2023/10/16 07:18:33;;;;;;;2.92;2.72;;;0.80;99.90;;;;;;4985407;28;20537;-30
2023/10/16 07:21:06;;;;;;;4.57;2.10;;;0.80;99.90;;;;;;4991230;28;20073;-38
2023/10/16 07:23:36;;;;;;;2.47;2.28;;;0.90;99.90;;;;;;4982496;28;20399;-39
2023/10/16 07:26:03;;;;;;;3.50;2.90;;;0.90;99.90;;;;;;4988027;28;20030;-40
2023/10/16 07:28:31;;;;;;;5.63;2.83;;;1.00;99.90;;;;;;4985180;28;20026;-39
2023/10/16 07:30:57;;;;;;;3.72;3.05;;;1.00;99.90;;;;;;4983581;28;20045;-32
2023/10/16 07:33:23;;;;;;;3.10;2.78;;;1.10;99.90;;;;;;4983270;28;20034;-40
2023/10/16 07:35:51;;;;;;;3.25;2.65;;;1.10;99.90;;;;;;4985269;28;20072;-41
2023/10/16 07:38:21;;;;;;;3.23;2.93;;;1.20;99.90;;;;;;4986575;28;20030;-38
2023/10/16 07:40:54;;;;;;;3.92;3.50;;;1.20;99.90;;;;;;4986787;28;20039;-41
2023/10/16 07:43:26;;;;;;;3.35;3.03;;;1.40;99.90;;;;;;4984849;28;20441;-41
2023/10/16 07:46:16;;;;;;;4.68;3.17;;;1.60;99.90;;;;;;4979700;28;20030;-38
2023/10/16 07:48:44;;;;;;;3.17;2.88;;;1.70;99.90;;;;;;4984479;28;20630;-40
2023/10/16 07:51:11;;;;;;;5.82;3.78;;;1.70;99.90;;;;;;4983398;28;20026;-40
2023/10/16 07:54:00;;;;;;;4.38;3.75;;;1.80;99.90;;;;;;4982508;28;20104;-36
2023/10/16 07:56:28;;;;;;;3.65;3.35;;;1.90;99.90;;;;;;4962830;28;20499;-41
2023/10/16 07:59:06;;;;;;;;;;;2.10;99.90;;;;;;4960817;28;20098;-41
2023/10/16 08:06:55;;;;;;;4.05;3.60;;;2.60;99.90;;;;;;4967083;28;20039;-41
2023/10/16 08:12:12;;;;;;;;;;;2.90;99.90;;;;;;4960508;28;20043;-34
2023/10/16 08:14:41;;;;;;;5.45;4.35;;;3.00;99.90;;;;;;4961533;28;19918;-33
2023/10/16 08:17:17;;;;;;;5.20;4.60;;;3.10;99.90;;;;;;4946888;28;20174;-34
2023/10/16 08:19:44;;;;;;;7.47;4.57;;;3.30;99.90;;;;;;4947436;28;20038;-35
2023/10/16 08:22:13;;;;;;;7.38;4.75;;;3.40;99.90;;;;;;4948594;28;20038;-33
2023/10/16 08:24:58;;;;;;;6.53;5.30;;;3.50;99.90;;;;;;4941568;28;20027;-35
2023/10/16 08:30:18;;;;;;;8.20;5.15;;;4.00;99.90;;;;;;4984262;28;20050;-33
2023/10/16 08:35:17;;;;;;;8.55;5.60;;;4.40;99.90;;;;;;4978755;28;20485;-34
2023/10/16 08:37:56;;;;;;;6.00;4.90;;;4.50;99.90;;;;;;4975146;28;20042;-34
2023/10/16 08:40:32;;;;;;;9.43;5.55;;;4.70;99.90;;;;;;4985957;28;20058;-36
2023/10/16 08:43:00;;;;;;;7.47;4.95;;;5.00;99.90;;;;;;4978057;28;20041;-34
2023/10/16 08:45:29;;;;;;;5.97;5.38;;;5.20;99.90;;;;;;4983310;28;20746;-33
2023/10/16 08:47:56;;;;;;;7.28;4.93;;;5.30;99.90;;;;;;4976561;28;20492;-35
2023/10/16 08:50:32;;;;;;;7.88;4.82;;;5.40;99.90;;;;;;4982198;28;20065;-39
2023/10/16 08:53:05;;;;;;;7.60;5.38;;;5.60;99.90;;;;;;4982987;28;20483;-36
2023/10/16 08:55:32;;;;;;;6.65;4.70;;;5.80;99.90;;;;;;4982728;28;20519;-34
2023/10/16 08:57:58;;;;;;;6.25;4.70;;;5.90;99.90;;;;;;4979923;28;20157;-34
2023/10/16 09:00:30;;;;;;;7.35;4.20;;;6.10;99.90;;;;;;4984003;28;20118;-33
2023/10/16 09:03:00;;;;;;;5.35;4.55;;;6.20;99.90;;;;;;4986772;28;20070;-33
2023/10/16 09:05:26;;;;;;;7.70;5.10;;;6.30;99.90;;;;;;4980868;28;20073;-32
2023/10/16 09:07:51;;;;;;;5.78;4.80;;;6.40;99.90;;;;;;4978594;28;20050;-33
2023/10/16 09:10:21;;;;;;;5.13;3.85;;;6.40;99.90;;;;;;4983666;28;20038;-33
2023/10/16 09:13:13;;;;;;;5.97;4.32;;;6.50;99.90;;;;;;4987333;28;20424;-33
2023/10/16 09:15:45;;;;;;;8.32;4.30;;;6.50;99.90;;;;;;4985086;28;20034;-35
2023/10/16 09:18:14;;;;;;;5.70;4.15;;;6.60;99.90;;;;;;4980366;28;20026;-34
2023/10/16 09:20:43;;;;;;;4.90;4.07;;;6.60;99.90;;;;;;4982084;28;20034;-34
2023/10/16 09:23:15;;;;;;;5.18;3.83;;;6.70;99.90;;;;;;4983352;28;20042;-39
2023/10/16 09:25:47;;;;;;;6.97;4.68;;;6.80;99.90;;;;;;4977101;28;20030;-40
2023/10/16 09:28:22;;;;;;;6.15;4.63;;;7.00;99.90;;;;;;4980433;28;20031;-37
2023/10/16 09:30:49;;;;;;;5.63;4.20;;;7.00;99.90;;;;;;4981605;28;20081;-42
2023/10/16 09:33:15;;;;;;;6.13;4.32;;;7.10;99.90;;;;;;4987185;28;20018;-41
2023/10/16 09:35:44;;;;;;;6.97;4.55;;;7.20;99.90;;;;;;4975796;28;20061;-41
2023/10/16 09:38:17;;;;;;;5.65;3.85;;;7.50;99.90;;;;;;4975358;28;20034;-37
2023/10/16 09:40:58;;;;;;;6.82;3.97;;;7.40;99.90;;;;;;4984401;28;20022;-39
2023/10/16 09:43:27;;;;;;;6.70;4.57;;;7.50;99.90;;;;;;4978743;28;20022;-31
2023/10/16 09:48:39;;;;;;;5.40;4.32;;;7.70;99.90;;;;;;4982998;28;20113;-31
2023/10/16 09:51:09;;;;;;;5.38;3.90;;;7.80;99.90;;;;;;4988098;28;20034;-30
2023/10/16 09:53:35;;;;;;;5.93;4.25;;;7.90;99.90;;;;;;4986074;28;20030;-30
2023/10/16 09:56:02;;;;;;;5.60;4.05;;;8.00;99.90;;;;;;4990945;28;20497;-34
2023/10/16 09:58:34;;;;;;;6.80;3.95;;;8.00;99.90;;;;;;4990364;28;20026;-30
2023/10/16 10:01:09;;;;;;;5.80;4.00;;;8.10;99.90;;;;;;4987125;28;20045;-31
2023/10/16 10:03:36;;;;;;;5.63;3.70;;;8.20;99.90;;;;;;4982911;28;20030;-30
2023/10/16 10:06:20;;;;;;;7.35;3.15;;;8.20;99.90;;;;;;4980775;28;20114;-31
2023/10/16 10:11:38;;;;;;;5.18;3.65;;;8.20;99.90;;;;;;4981388;28;20039;-30
2023/10/16 10:14:26;;;;;;;4.97;3.13;;;8.20;99.90;;;;;;4987162;28;20136;-31
2023/10/16 10:16:58;;;;;;;6.55;3.85;;;8.20;99.90;;;;;;4986321;28;20435;-31
2023/10/16 10:19:39;;;;;;;5.07;3.50;;;8.40;99.90;;;;;;4989103;28;20093;-34
2023/10/16 10:22:26;;;;;;;3.22;2.90;;;8.50;99.90;;;;;;4988879;28;20030;-30
2023/10/16 10:25:09;;;;;;;2.60;2.40;;;8.40;99.90;;;;;;4983381;28;20027;-29
2023/10/16 10:27:41;;;;;;;3.85;3.00;;;8.40;99.90;;;;;;4985591;28;20034;-30
2023/10/16 10:30:16;;;;;;;2.80;2.42;;;8.40;99.90;;;;;;4982988;28;20034;-30
2023/10/16 10:32:42;;;;;;;4.50;3.58;;;8.50;99.90;;;;;;4983752;28;20046;-33
2023/10/16 10:35:29;;;;;;;4.47;3.35;;;8.60;99.90;;;;;;4986238;28;20035;-33
2023/10/16 10:38:24;;;;;;;5.03;3.47;;;8.60;99.90;;;;;;4982429;28;20034;-34
2023/10/16 10:41:04;;;;;;;5.55;3.00;;;8.60;99.90;;;;;;4983107;28;20037;-34
2023/10/16 10:43:48;;;;;;;4.03;3.15;;;8.70;99.90;;;;;;4984921;28;20039;-34
2023/10/16 10:46:24;;;;;;;3.72;2.83;;;8.80;99.90;;;;;;4983319;28;20037;-32
2023/10/16 10:48:50;;;;;;;3.30;3.00;;;8.80;99.90;;;;;;4979749;28;20029;-35
2023/10/16 10:51:16;;;;;;;5.30;3.08;;;8.60;99.90;;;;;;4986886;28;20504;-31
2023/10/16 10:53:53;;;;;;;3.40;2.88;;;8.60;99.90;;;;;;4984956;28;20603;-31
2023/10/16 10:56:20;;;;;;;4.88;3.10;;;8.60;99.90;;;;;;4980089;28;20046;-31
2023/10/16 10:58:46;;;;;;;3.78;3.08;;;8.60;99.90;;;;;;4979951;28;20629;-34
2023/10/16 11:01:16;;;;;;;3.50;2.50;;;8.60;99.90;;;;;;4982326;28;20080;-33
2023/10/16 11:03:45;;;;;;;4.00;2.92;;;8.60;99.90;;;;;;4977935;28;20019;-30
2023/10/16 11:06:15;;;;;;;3.70;2.65;;;8.70;99.90;;;;;;4988688;28;20038;-32
2023/10/16 11:08:42;;;;;;;3.13;2.83;;;8.80;99.90;;;;;;4983933;28;20420;-32
2023/10/16 11:11:10;;;;;;;3.40;2.97;;;8.90;99.90;;;;;;4984253;28;20038;-32
2023/10/16 11:13:44;;;;;;;4.75;2.83;;;9.10;99.90;;;;;;4986180;28;20035;-32
2023/10/16 11:16:09;;;;;;;3.25;2.83;;;9.00;99.90;;;;;;4987559;28;20529;-33
2023/10/16 11:18:37;;;;;;;5.47;2.58;;;9.00;99.90;;;;;;4988359;28;20062;-31
2023/10/16 11:21:07;;;;;;;4.38;2.50;;;9.00;99.90;;;;;;4989141;28;20042;-31
2023/10/16 11:23:38;;;;;;;2.45;2.13;;;9.00;99.90;;;;;;4986192;28;20085;-31
2023/10/16 11:26:05;;;;;;;3.78;2.80;;;9.10;99.90;;;;;;4986956;28;20379;-31
2023/10/16 11:28:32;;;;;;;3.97;2.70;;;9.40;99.90;;;;;;4982008;28;20026;-31
2023/10/16 11:31:00;;;;;;;2.55;1.70;;;9.30;99.90;;;;;;4981416;28;20039;-36
2023/10/16 11:33:43;;;;;;;2.47;2.20;;;9.30;99.90;;;;;;4984438;28;20084;-32
2023/10/16 11:36:08;;;;;;;2.78;2.30;;;9.40;99.90;;;;;;4984145;28;20109;-30
2023/10/16 11:38:34;;;;;;;5.15;3.15;;;9.40;99.90;;;;;;4979866;28;20066;-31
2023/10/16 11:41:24;;;;;;;2.20;2.00;;;9.50;99.90;;;;;;4983054;28;20037;-42
2023/10/16 11:43:54;;;;;;;2.75;2.03;;;9.50;99.90;;;;;;4984197;28;20431;-35
2023/10/16 11:46:28;;;;;;;1.80;1.70;;;9.70;99.90;;;;;;4983890;28;20437;-39
2023/10/16 11:51:49;;;;;;;2.42;2.17;;;9.50;99.90;;;;;;4981176;28;20243;-39
2023/10/16 11:54:19;;;;;;;3.63;2.40;;;9.70;99.90;;;;;;4981558;28;20085;-37
2023/10/16 11:56:47;;;;;;;2.42;2.22;;;9.80;99.90;;;;;;4982062;28;20082;-39
2023/10/16 11:59:15;;;;;;;2.85;2.22;;;9.90;99.90;;;;;;4983647;28;20522;-40
2023/10/16 12:01:42;;;;;;;3.38;2.20;;;9.90;99.90;;;;;;4988689;28;20034;-37
2023/10/16 12:04:09;;;;;;;2.25;2.05;;;9.90;99.90;;;;;;4977822;28;20033;-39
2023/10/16 12:06:35;;;;;;;3.13;2.83;;;10.00;99.90;;;;;;4981107;28;20034;-39
2023/10/16 12:09:01;;;;;;;2.03;1.88;;;10.00;99.90;;;;;;4985052;28;20487;-39
2023/10/16 12:11:26;;;;;;;3.60;2.20;;;10.00;99.90;;;;;;4984338;28;20032;-40
2023/10/16 12:13:52;;;;;;;2.80;2.42;;;9.80;99.90;;;;;;4984513;28;20061;-38
2023/10/16 12:16:24;;;;;;;3.17;2.53;;;10.00;99.90;;;;;;4985764;28;20597;-38
2023/10/16 12:18:51;;;;;;;3.22;2.80;;;10.10;99.90;;;;;;4985838;28;20038;-40
2023/10/16 12:21:17;;;;;;;3.05;2.72;;;10.10;99.90;;;;;;4982837;28;20121;-40
2023/10/16 12:23:43;;;;;;;4.10;3.70;;;10.00;99.90;;;;;;4986747;28;20496;-40
2023/10/16 12:26:09;;;;;;;4.13;3.65;;;10.10;99.90;;;;;;4985834;28;20033;-39
2023/10/16 12:28:35;;;;;;;7.28;4.00;;;10.20;99.90;;;;;;4979012;28;20053;-40
2023/10/16 12:31:02;;;;;;;5.63;4.72;;;10.20;99.90;;;;;;4988565;28;20045;-39
2023/10/16 12:33:30;;;;;;;4.57;3.60;;;10.30;99.90;;;;;;4984571;28;20026;-39
2023/10/16 12:35:56;;;;;;;4.97;3.72;;;10.30;99.90;;;;;;4982888;28;20033;-34
2023/10/16 12:38:23;;;;;;;4.07;2.97;;;10.30;99.90;;;;;;4980591;28;20027;-38
2023/10/16 12:40:59;;;;;;;4.65;3.65;;;10.30;99.90;;;;;;4984517;28;20041;-40
2023/10/16 12:43:28;;;;;;;4.55;3.38;;;10.10;99.90;;;;;;4980658;28;20027;-39
2023/10/16 12:45:57;;;;;;;3.92;3.42;;;10.00;99.90;;;;;;4982626;28;20034;-38
2023/10/16 12:48:25;;;;;;;4.90;3.95;;;10.00;99.90;;;;;;4987529;28;20042;-39
2023/10/16 12:50:51;;;;;;;;;;;10.10;99.90;;;;;;4985192;28;20030;-39
2023/10/16 12:53:27;;;;;;;3.88;3.35;;;10.00;99.90;;;;;;4981795;28;19916;-32
2023/10/16 12:55:55;;;;;;;4.53;3.88;;;9.90;99.90;;;;;;4979411;28;20870;-37
2023/10/16 13:01:42;;;;;;;4.53;3.90;;;10.00;99.90;;;;;;4989044;28;20141;-34
2023/10/16 13:04:13;;;;;;;4.03;3.60;;;10.10;99.90;;;;;;4978323;28;20863;-36
2023/10/16 13:06:39;;;;;;;4.38;3.72;;;10.10;99.90;;;;;;4984443;28;20113;-34
2023/10/16 13:09:05;;;;;;;5.15;4.38;;;10.10;99.90;;;;;;4980490;28;20057;-34
2023/10/16 13:11:31;;;;;;;5.45;4.50;;;10.10;99.90;;;;;;4985337;28;20030;-32
2023/10/16 13:13:57;;;;;;;5.25;4.75;;;10.00;99.90;;;;;;4987575;28;20113;-34
2023/10/16 13:16:28;;;;;;;6.28;5.13;;;9.70;99.90;;;;;;4977999;28;20113;-30
2023/10/16 13:18:57;;;;;;;6.70;5.53;;;9.70;99.90;;;;;;4987711;28;20034;-30
2023/10/16 13:21:38;;;;;;;6.55;4.53;;;9.90;99.90;;;;;;4983408;28;20116;-30
2023/10/16 13:24:09;;;;;;;6.55;4.93;;;9.90;99.90;;;;;;4984519;28;20092;-37
2023/10/16 13:26:38;;;;;;;5.55;4.95;;;9.90;99.90;;;;;;4982030;28;20105;-31
2023/10/16 13:29:12;;;;;;;6.60;4.40;;;9.90;99.90;;;;;;4979481;28;20031;-37
2023/10/16 13:31:45;;;;;;;4.93;4.38;;;10.00;99.90;;;;;;4976189;28;20493;-30
2023/10/16 13:34:13;;;;;;;5.47;4.82;;;10.10;99.90;;;;;;4980783;28;20117;-31
2023/10/16 13:37:00;;;;;;;7.55;5.15;;;10.10;99.90;;;;;;4982518;28;20031;-31
2023/10/16 13:39:31;;;;;;;6.27;5.67;;;9.90;99.90;;;;;;4975181;28;20036;-31
2023/10/16 13:41:58;;;;;;;6.15;5.20;;;10.00;99.90;;;;;;4975691;28;20035;-37
2023/10/16 13:44:29;;;;;;;5.75;4.80;;;10.00;99.90;;;;;;4982407;28;20030;-30
2023/10/16 13:46:55;;;;;;;6.97;4.70;;;10.10;99.90;;;;;;4979041;28;20496;-31
2023/10/16 13:49:23;;;;;;;6.25;4.60;;;10.10;99.90;;;;;;4985396;28;20388;-30
2023/10/16 13:51:52;;;;;;;5.28;4.30;;;10.00;99.90;;;;;;4978785;28;20481;-30
2023/10/16 13:54:18;;;;;;;;;;;9.80;99.90;;;;;;4982337;28;20090;-30
2023/10/16 13:56:48;;;;;;;5.55;4.13;;;9.70;99.90;;;;;;4983059;28;19979;-30
2023/10/16 13:59:15;;;;;;;5.43;4.03;;;9.70;99.90;;;;;;4979133;28;20025;-32
2023/10/16 14:01:43;;;;;;;5.47;4.68;;;9.80;99.90;;;;;;4981161;28;20496;-38
2023/10/16 14:04:14;;;;;;;5.15;4.65;;;9.80;99.90;;;;;;4981686;28;20535;-37
2023/10/16 14:06:44;;;;;;;4.80;4.25;;;9.80;99.90;;;;;;4975269;28;20041;-41
2023/10/16 14:09:20;;;;;;;4.40;3.97;;;9.80;99.90;;;;;;4982942;28;20026;-40
2023/10/16 14:11:49;;;;;;;3.92;3.60;;;9.90;99.90;;;;;;4981801;28;20037;-38
2023/10/16 14:14:20;;;;;;;3.58;3.28;;;10.00;99.90;;;;;;4979687;28;20035;-40
2023/10/16 14:16:50;;;;;;;3.72;3.35;;;10.00;99.90;;;;;;4980475;28;20408;-40
2023/10/16 14:19:28;;;;;;;3.47;3.17;;;10.00;99.90;;;;;;4982827;28;20022;-40
2023/10/16 14:21:55;;;;;;;4.40;2.53;;;10.00;99.90;;;;;;4982994;28;20042;-40
2023/10/16 14:24:27;;;;;;;4.20;2.95;;;9.90;99.90;;;;;;4985547;28;20031;-40
2023/10/16 14:26:57;;;;;;;4.88;3.67;;;10.00;99.90;;;;;;4977121;28;20026;-38
2023/10/16 14:29:24;;;;;;;4.53;3.45;;;10.00;99.90;;;;;;4976238;28;20404;-38
2023/10/16 14:31:51;;;;;;;3.47;3.17;;;9.90;99.90;;;;;;4985036;28;20553;-37
2023/10/16 14:34:25;;;;;;;5.28;3.33;;;10.00;99.90;;;;;;4983404;28;20543;-38
2023/10/16 14:36:51;;;;;;;4.20;3.17;;;9.90;99.90;;;;;;4986413;28;20031;-39
2023/10/16 14:39:18;;;;;;;5.15;3.17;;;9.90;99.90;;;;;;4983674;28;20034;-39
2023/10/16 14:41:44;;;;;;;3.53;3.00;;;9.90;99.90;;;;;;4985198;28;20057;-39
2023/10/16 14:44:11;;;;;;;3.20;2.90;;;9.80;99.90;;;;;;4977199;28;20076;-39
2023/10/16 14:46:38;;;;;;;3.25;2.80;;;9.90;99.90;;;;;;4975156;28;20037;-40
2023/10/16 14:49:09;;;;;;;2.28;2.08;;;9.80;99.90;;;;;;4985874;28;20117;-40
2023/10/16 14:51:37;;;;;;;2.47;2.15;;;9.80;99.90;;;;;;4980325;28;20038;-39
2023/10/16 14:54:04;;;;;;;3.67;3.10;;;9.80;99.90;;;;;;4987943;28;20045;-39
2023/10/16 14:56:30;;;;;;;3.47;3.05;;;9.80;99.90;;;;;;4983076;28;20041;-39
2023/10/16 14:58:55;;;;;;;5.90;4.15;;;9.70;99.90;;;;;;4984509;28;20460;-36
2023/10/16 15:01:21;;;;;;;3.00;2.42;;;9.60;99.90;;;;;;4983286;28;20030;-40
2023/10/16 15:03:48;;;;;;;2.35;2.10;;;9.70;99.90;;;;;;4982934;28;20070;-40
2023/10/16 15:06:15;;;;;;;2.10;1.92;;;9.60;99.90;;;;;;4982130;28;20023;-39
2023/10/16 15:08:44;;;;;;;3.80;1.70;;;9.60;99.90;;;;;;4982287;28;20030;-35
2023/10/16 15:11:10;;;;;;;2.40;2.17;;;9.60;99.90;;;;;;4985161;28;20041;-39
2023/10/16 15:13:40;;;;;;;4.15;3.25;;;9.70;99.90;;;;;;4981825;28;20072;-39